Time,TemperatureF,DewpointF,PressureIn,WindDirection,WindDirectionDegrees,WindSpeedMPH,WindSpeedGustMPH,Humidity,HourlyPrecipIn,Conditions,Clouds,dailyrainin,SolarRadiationWatts/m^2,SoftwareType,DateUTC
2013-10-04 00:32:00,69.6,68.7,30.05,NE,55,0.0,0.0,97,0.00,,,0.00,0.0,meteohub,2013-10-04 04:32:00,
2013-10-04 00:34:00,69.6,68.7,30.04,NE,55,0.0,0.0,97,0.00,,,0.00,0.0,meteohub,2013-10-04 04:34:00,
2013-10-04 00:35:00,69.6,68.7,30.04,NE,55,0.0,0.0,97,0.00,,,0.00,0.0,meteohub,2013-10-04 04:35:00,
2013-10-04 00:36:00,69.6,68.7,30.04,NE,55,0.0,0.0,97,0.00,,,0.00,0.0,meteohub,2013-10-04 04:36:00,
2013-10-04 00:37:00,69.6,68.7,30.04,NE,55,0.0,0.0,97,0.00,,,0.00,0.0,meteohub,2013-10-04 04:37:00,
2013-10-04 00:39:00,69.6,68.7,30.04,NE,55,0.0,0.0,97,0.00,,,0.00,0.0,meteohub,2013-10-04 04:39:00,
2013-10-04 00:42:00,69.6,68.7,30.04,NE,55,0.0,0.0,97,0.00,,,0.00,0.0,meteohub,2013-10-04 04:42:00,
2013-10-04 00:43:00,69.6,68.7,30.04,NE,55,0.0,0.0,97,0.00,,,0.00,0.0,meteohub,2013-10-04 04:43:00,
2013-10-04 00:46:00,69.6,68.7,30.04,NE,55,0.0,0.0,97,0.00,,,0.00,0.0,meteohub,2013-10-04 04:46:00,
2013-10-04 00:47:00,69.6,68.7,30.04,NE,55,0.0,0.0,97,0.00,,,0.00,0.0,meteohub,2013-10-04 04:47:00,
2013-10-04 00:49:00,69.6,68.7,30.04,NE,55,0.0,0.0,97,0.00,,,0.00,0.0,meteohub,2013-10-04 04:49:00,
2013-10-04 00:50:00,69.6,68.7,30.05,NE,55,0.0,0.0,97,0.00,,,0.00,0.0,meteohub,2013-10-04 04:50:00,
2013-10-04 00:55:00,69.4,68.5,30.04,NE,55,0.0,0.0,97,0.00,,,0.00,0.0,meteohub,2013-10-04 04:55:00,
2013-10-04 00:57:00,69.4,68.5,30.04,NE,55,0.0,0.0,97,0.00,,,0.00,0.0,meteohub,2013-10-04 04:57:00,
2013-10-04 01:01:00,69.4,68.5,30.04,NE,55,0.0,0.0,97,0.00,,,0.00,0.0,meteohub,2013-10-04 05:01:00,
2013-10-04 01:03:00,69.4,68.5,30.04,NE,55,0.0,0.0,97,0.00,,,0.00,0.0,meteohub,2013-10-04 05:03:00,
2013-10-04 01:04:00,69.4,68.5,30.04,NE,55,0.0,0.0,97,0.00,,,0.00,0.0,meteohub,2013-10-04 05:04:00,
2013-10-04 01:06:00,69.3,68.4,30.04,NE,55,0.0,0.0,97,0.00,,,0.00,0.0,meteohub,2013-10-04 05:06:00,
2013-10-04 01:08:00,69.3,68.4,30.04,NE,55,0.0,0.0,97,0.00,,,0.00,0.0,meteohub,2013-10-04 05:08:00,
2013-10-04 01:13:00,69.3,68.4,30.04,NE,55,0.0,0.0,97,0.00,,,0.00,0.0,meteohub,2013-10-04 05:13:00,
2013-10-04 01:17:00,69.3,68.4,30.04,NE,55,0.0,0.0,97,0.00,,,0.00,0.0,meteohub,2013-10-04 05:17:00,
2013-10-04 01:19:00,69.3,68.4,30.04,NE,55,0.0,0.0,97,0.00,,,0.00,0.0,meteohub,2013-10-04 05:19:00,
2013-10-04 01:26:00,69.1,68.2,30.04,NE,55,0.0,0.0,97,0.00,,,0.00,0.0,meteohub,2013-10-04 05:26:00,
2013-10-04 01:31:00,69.1,68.2,30.04,NE,55,0.0,0.0,97,0.00,,,0.00,0.0,meteohub,2013-10-04 05:31:00,
2013-10-04 01:36:00,68.9,68.0,30.04,NE,55,0.0,0.0,97,0.00,,,0.00,0.0,meteohub,2013-10-04 05:36:00,
2013-10-04 01:41:00,68.7,67.8,30.04,NE,55,0.0,0.0,97,0.00,,,0.00,0.0,meteohub,2013-10-04 05:41:00,
2013-10-04 01:46:00,68.5,67.6,30.04,NE,55,0.0,0.0,97,0.00,,,0.00,0.0,meteohub,2013-10-04 05:46:00,
2013-10-04 01:51:00,68.5,67.6,30.04,NE,55,0.0,0.0,97,0.00,,,0.00,0.0,meteohub,2013-10-04 05:51:00,
2013-10-04 01:56:00,68.5,67.6,30.04,NE,55,0.0,0.0,97,0.00,,,0.00,0.0,meteohub,2013-10-04 05:56:00,
2013-10-04 02:01:00,68.5,67.6,30.04,NE,55,0.0,0.0,97,0.00,,,0.00,0.0,meteohub,2013-10-04 06:01:00,
2013-10-04 02:06:00,68.5,67.6,30.04,NE,55,0.0,0.0,97,0.00,,,0.00,0.0,meteohub,2013-10-04 06:06:00,
2013-10-04 02:11:00,68.5,67.6,30.04,NE,55,0.0,0.0,97,0.00,,,0.00,0.0,meteohub,2013-10-04 06:11:00,
2013-10-04 02:16:00,68.5,67.6,30.04,NE,55,0.0,0.0,97,0.00,,,0.00,0.0,meteohub,2013-10-04 06:16:00,
2013-10-04 02:21:00,68.5,67.6,30.04,NE,55,0.0,0.0,97,0.00,,,0.00,0.0,meteohub,2013-10-04 06:21:00,
2013-10-04 02:26:00,68.5,67.6,30.04,NE,55,0.0,0.0,97,0.00,,,0.00,0.0,meteohub,2013-10-04 06:26:00,
2013-10-04 02:31:00,68.4,67.5,30.03,NE,55,0.0,0.0,97,0.00,,,0.00,0.0,meteohub,2013-10-04 06:31:00,
2013-10-04 02:36:00,68.5,67.6,30.03,NE,55,0.0,0.0,97,0.00,,,0.00,0.0,meteohub,2013-10-04 06:36:00,
2013-10-04 02:42:00,68.5,67.6,30.03,NE,55,0.0,0.0,97,0.00,,,0.00,0.0,meteohub,2013-10-04 06:42:00,
2013-10-04 02:47:00,68.5,67.6,30.03,NE,55,0.0,0.0,97,0.00,,,0.00,0.0,meteohub,2013-10-04 06:47:00,
2013-10-04 02:52:00,68.5,68.0,30.03,NE,55,0.0,0.0,98,0.00,,,0.00,0.0,meteohub,2013-10-04 06:52:00,
2013-10-04 02:57:00,68.4,67.8,30.03,NE,55,0.0,0.0,98,0.00,,,0.00,0.0,meteohub,2013-10-04 06:57:00,
2013-10-04 03:02:00,68.4,67.5,30.03,NE,55,0.0,0.0,97,0.00,,,0.00,0.0,meteohub,2013-10-04 07:02:00,
2013-10-04 03:07:00,68.4,67.5,30.03,NE,55,0.0,0.0,97,0.00,,,0.00,0.0,meteohub,2013-10-04 07:07:00,
2013-10-04 03:12:00,68.4,67.5,30.03,NE,55,0.0,0.0,97,0.00,,,0.00,0.0,meteohub,2013-10-04 07:12:00,
2013-10-04 03:17:00,68.2,67.3,30.03,NE,55,0.0,0.0,97,0.00,,,0.00,0.0,meteohub,2013-10-04 07:17:00,
2013-10-04 03:22:00,68.0,67.5,30.03,NE,55,0.0,0.0,98,0.00,,,0.00,0.0,meteohub,2013-10-04 07:22:00,
2013-10-04 03:27:00,68.0,67.5,30.03,NE,55,0.0,0.0,98,0.00,,,0.00,0.0,meteohub,2013-10-04 07:27:00,
2013-10-04 03:32:00,68.0,67.5,30.03,NE,55,0.0,0.0,98,0.00,,,0.00,0.0,meteohub,2013-10-04 07:32:00,
2013-10-04 03:37:00,67.8,67.3,30.02,NE,55,0.0,0.0,98,0.00,,,0.00,0.0,meteohub,2013-10-04 07:37:00,
2013-10-04 03:42:00,68.0,67.5,30.02,NE,55,0.0,0.0,98,0.00,,,0.00,0.0,meteohub,2013-10-04 07:42:00,
2013-10-04 03:47:00,68.0,67.5,30.02,NE,55,0.0,0.0,98,0.00,,,0.00,0.0,meteohub,2013-10-04 07:47:00,
2013-10-04 03:52:00,68.0,67.5,30.02,NE,55,0.0,0.0,98,0.00,,,0.00,0.0,meteohub,2013-10-04 07:52:00,
2013-10-04 03:57:00,67.8,67.3,30.02,NE,55,0.0,0.0,98,0.00,,,0.00,0.0,meteohub,2013-10-04 07:57:00,
2013-10-04 04:02:00,67.8,67.3,30.02,NE,55,0.0,0.0,98,0.00,,,0.00,0.0,meteohub,2013-10-04 08:02:00,
2013-10-04 04:07:00,67.8,67.3,30.02,NE,55,0.0,0.0,98,0.00,,,0.00,0.0,meteohub,2013-10-04 08:07:00,
2013-10-04 04:12:00,67.8,67.3,30.02,NE,55,0.0,0.0,98,0.00,,,0.00,0.0,meteohub,2013-10-04 08:12:00,
2013-10-04 04:17:00,68.0,67.5,30.02,NE,55,0.0,0.0,98,0.00,,,0.00,0.0,meteohub,2013-10-04 08:17:00,
2013-10-04 04:22:00,67.8,67.3,30.02,NE,55,0.0,0.0,98,0.00,,,0.00,0.0,meteohub,2013-10-04 08:22:00,
2013-10-04 04:27:00,67.8,67.3,30.02,NE,55,0.0,0.0,98,0.00,,,0.00,0.0,meteohub,2013-10-04 08:27:00,
2013-10-04 04:32:00,67.8,67.3,30.02,NE,55,0.0,0.0,98,0.00,,,0.00,0.0,meteohub,2013-10-04 08:32:00,
2013-10-04 04:37:00,67.8,67.3,30.02,NE,55,0.0,0.0,98,0.00,,,0.00,0.0,meteohub,2013-10-04 08:37:00,
2013-10-04 04:42:00,67.8,67.3,30.02,NE,55,0.0,0.0,98,0.00,,,0.00,0.0,meteohub,2013-10-04 08:42:00,
2013-10-04 04:47:00,67.8,67.3,30.02,NE,55,0.0,0.0,98,0.00,,,0.00,0.0,meteohub,2013-10-04 08:47:00,
2013-10-04 04:52:00,67.8,67.3,30.02,NE,55,0.0,0.0,98,0.00,,,0.00,0.0,meteohub,2013-10-04 08:52:00,
2013-10-04 04:57:00,67.8,67.3,30.02,NE,55,0.0,0.0,98,0.00,,,0.00,0.0,meteohub,2013-10-04 08:57:00,
2013-10-04 05:02:00,67.8,67.3,30.02,NE,55,0.0,0.0,98,0.00,,,0.00,0.0,meteohub,2013-10-04 09:02:00,
2013-10-04 05:07:00,67.8,67.3,30.02,NE,55,0.0,0.0,98,0.00,,,0.00,0.0,meteohub,2013-10-04 09:07:00,
2013-10-04 05:12:00,68.0,67.5,30.02,NE,55,0.0,0.0,98,0.00,,,0.00,0.0,meteohub,2013-10-04 09:12:00,
2013-10-04 05:17:00,68.0,67.5,30.02,NE,55,0.0,0.0,98,0.00,,,0.00,0.0,meteohub,2013-10-04 09:17:00,
2013-10-04 05:22:00,68.2,67.6,30.02,NE,55,0.0,0.0,98,0.00,,,0.00,0.0,meteohub,2013-10-04 09:22:00,
2013-10-04 05:27:00,68.2,67.6,30.02,NE,55,0.0,0.0,98,0.00,,,0.00,0.0,meteohub,2013-10-04 09:27:00,
2013-10-04 05:32:00,68.2,67.6,30.03,NE,55,0.0,0.0,98,0.00,,,0.00,0.0,meteohub,2013-10-04 09:32:00,
2013-10-04 05:37:00,68.2,67.6,30.03,NE,55,0.0,0.0,98,0.00,,,0.00,0.0,meteohub,2013-10-04 09:37:00,
2013-10-04 05:42:00,68.2,67.6,30.03,NE,55,0.0,0.0,98,0.00,,,0.00,0.0,meteohub,2013-10-04 09:42:00,
2013-10-04 05:47:00,68.2,67.6,30.03,NE,55,0.0,0.0,98,0.00,,,0.00,0.0,meteohub,2013-10-04 09:47:00,
2013-10-04 05:52:00,68.4,67.8,30.03,NE,55,0.0,0.0,98,0.00,,,0.00,0.0,meteohub,2013-10-04 09:52:00,
2013-10-04 05:57:00,68.4,67.8,30.03,NE,55,0.0,0.0,98,0.00,,,0.00,0.0,meteohub,2013-10-04 09:57:00,
2013-10-04 06:02:00,68.4,67.8,30.04,NE,55,0.0,0.0,98,0.00,,,0.00,0.0,meteohub,2013-10-04 10:02:00,
2013-10-04 06:07:00,68.4,67.8,30.04,NE,55,0.0,0.0,98,0.00,,,0.00,0.0,meteohub,2013-10-04 10:07:00,
2013-10-04 06:12:00,68.2,67.6,30.04,NE,55,0.0,0.0,98,0.00,,,0.00,0.0,meteohub,2013-10-04 10:12:00,
2013-10-04 06:17:00,68.2,67.6,30.04,NE,55,0.0,0.0,98,0.00,,,0.00,0.0,meteohub,2013-10-04 10:17:00,
2013-10-04 06:22:00,68.0,67.5,30.04,NE,55,0.0,0.0,98,0.00,,,0.00,0.0,meteohub,2013-10-04 10:22:00,
2013-10-04 06:27:00,68.0,67.5,30.04,NE,55,0.0,0.0,98,0.00,,,0.00,0.0,meteohub,2013-10-04 10:27:00,
2013-10-04 06:32:00,68.0,67.5,30.04,NE,55,0.0,0.0,98,0.00,,,0.00,0.0,meteohub,2013-10-04 10:32:00,
2013-10-04 06:37:00,68.2,67.6,30.04,NE,55,0.0,0.0,98,0.00,,,0.00,0.0,meteohub,2013-10-04 10:37:00,
2013-10-04 06:42:00,68.0,67.5,30.04,NE,55,0.0,0.0,98,0.00,,,0.00,0.0,meteohub,2013-10-04 10:42:00,
2013-10-04 06:47:00,68.0,67.5,30.04,NE,55,0.0,0.0,98,0.00,,,0.00,0.0,meteohub,2013-10-04 10:47:00,
2013-10-04 06:52:00,68.0,67.5,30.04,NE,55,0.0,0.0,98,0.00,,,0.00,0.0,meteohub,2013-10-04 10:52:00,
2013-10-04 06:57:00,68.0,67.5,30.04,NE,55,0.0,0.0,98,0.00,,,0.00,0.0,meteohub,2013-10-04 10:57:00,
2013-10-04 07:02:00,67.8,67.3,30.04,NE,55,0.0,0.0,98,0.00,,,0.00,0.0,meteohub,2013-10-04 11:02:00,
2013-10-04 07:07:00,67.8,67.3,30.04,NE,55,0.0,0.0,98,0.00,,,0.00,0.0,meteohub,2013-10-04 11:07:00,
2013-10-04 07:12:00,67.6,67.1,30.04,NE,55,0.0,0.0,98,0.00,,,0.00,0.0,meteohub,2013-10-04 11:12:00,
2013-10-04 07:17:00,67.6,67.1,30.04,NE,55,0.0,0.0,98,0.00,,,0.00,0.0,meteohub,2013-10-04 11:17:00,
2013-10-04 07:22:00,67.6,67.1,30.04,NE,55,0.0,0.0,98,0.00,,,0.00,0.0,meteohub,2013-10-04 11:22:00,
2013-10-04 07:27:00,67.6,67.1,30.05,NE,55,0.0,0.0,98,0.00,,,0.00,0.0,meteohub,2013-10-04 11:27:00,
2013-10-04 07:32:00,67.6,67.1,30.05,NE,55,0.0,0.0,98,0.00,,,0.00,5.0,meteohub,2013-10-04 11:32:00,
2013-10-04 07:37:00,67.6,67.1,30.05,NE,55,0.0,0.0,98,0.00,,,0.00,7.0,meteohub,2013-10-04 11:37:00,
2013-10-04 07:42:00,67.6,67.1,30.05,NE,55,0.0,0.0,98,0.00,,,0.00,11.0,meteohub,2013-10-04 11:42:00,
2013-10-04 07:47:00,67.6,67.1,30.06,NE,55,0.0,0.0,98,0.00,,,0.00,12.0,meteohub,2013-10-04 11:47:00,
2013-10-04 07:52:00,67.6,67.1,30.06,NE,55,0.0,0.0,98,0.00,,,0.00,14.0,meteohub,2013-10-04 11:52:00,
2013-10-04 07:57:00,67.8,67.3,30.06,NE,55,0.0,0.0,98,0.00,,,0.00,14.0,meteohub,2013-10-04 11:57:00,
2013-10-04 08:02:00,67.8,67.3,30.06,NE,55,0.0,0.0,98,0.00,,,0.00,19.0,meteohub,2013-10-04 12:02:00,
2013-10-04 08:07:00,67.8,67.3,30.06,NE,55,0.0,0.0,98,0.00,,,0.00,37.0,meteohub,2013-10-04 12:07:00,
2013-10-04 08:12:00,67.8,67.3,30.06,NE,55,0.0,0.0,98,0.00,,,0.00,54.0,meteohub,2013-10-04 12:12:00,
2013-10-04 08:17:00,67.8,67.3,30.07,NE,55,0.0,0.0,98,0.00,,,0.00,63.0,meteohub,2013-10-04 12:17:00,
2013-10-04 08:22:00,68.2,67.6,30.07,NE,55,0.0,0.0,98,0.00,,,0.00,70.0,meteohub,2013-10-04 12:22:00,
2013-10-04 08:27:00,68.4,67.8,30.07,NE,55,0.0,0.0,98,0.00,,,0.00,40.0,meteohub,2013-10-04 12:27:00,
2013-10-04 08:32:00,68.4,67.8,30.07,NE,55,0.0,0.0,98,0.00,,,0.00,88.0,meteohub,2013-10-04 12:32:00,
2013-10-04 08:37:00,68.5,68.0,30.07,NE,55,0.0,0.0,98,0.00,,,0.00,125.0,meteohub,2013-10-04 12:37:00,
2013-10-04 08:42:00,68.7,68.2,30.07,NE,55,0.0,0.0,98,0.00,,,0.00,135.0,meteohub,2013-10-04 12:42:00,
2013-10-04 08:47:00,69.3,68.7,30.07,NE,55,0.0,0.0,98,0.00,,,0.00,174.0,meteohub,2013-10-04 12:47:00,
2013-10-04 08:52:00,70.0,69.4,30.07,NE,55,1.0,1.0,98,0.00,,,0.00,163.0,meteohub,2013-10-04 12:52:00,
2013-10-04 08:57:00,70.3,69.8,30.08,NE,55,0.0,1.0,98,0.00,,,0.00,171.0,meteohub,2013-10-04 12:57:00,
2013-10-04 09:02:00,70.5,70.0,30.08,NE,55,0.0,2.0,98,0.00,,,0.00,192.0,meteohub,2013-10-04 13:02:00,
2013-10-04 09:07:00,70.7,70.2,30.08,NE,55,0.0,2.0,98,0.00,,,0.00,195.0,meteohub,2013-10-04 13:07:00,
2013-10-04 09:12:00,71.1,70.5,30.08,NE,55,0.0,2.0,98,0.00,,,0.00,188.0,meteohub,2013-10-04 13:12:00,
2013-10-04 09:17:00,71.2,70.9,30.08,NE,55,0.0,2.0,99,0.00,,,0.00,214.0,meteohub,2013-10-04 13:17:00,
2013-10-04 09:22:00,71.6,71.1,30.08,NE,55,0.0,2.0,98,0.00,,,0.00,160.0,meteohub,2013-10-04 13:22:00,
2013-10-04 09:27:00,71.8,71.4,30.09,NE,55,0.0,2.0,99,0.00,,,0.00,239.0,meteohub,2013-10-04 13:27:00,
2013-10-04 09:31:00,72.1,71.8,30.09,NE,55,0.0,1.0,99,0.00,,,0.00,197.0,meteohub,2013-10-04 13:31:00,
2013-10-04 09:36:00,72.1,71.6,30.09,NE,55,0.0,2.0,98,0.00,,,0.00,179.0,meteohub,2013-10-04 13:36:00,
2013-10-04 09:41:00,72.3,72.0,30.09,NE,55,1.0,3.0,99,0.00,,,0.00,285.0,meteohub,2013-10-04 13:41:00,
2013-10-04 09:47:00,72.7,72.3,30.09,NE,55,1.0,3.0,99,0.00,,,0.00,274.0,meteohub,2013-10-04 13:47:00,
2013-10-04 09:52:00,72.7,72.1,30.09,NE,55,3.0,3.0,98,0.00,,,0.00,221.0,meteohub,2013-10-04 13:52:00,
2013-10-04 09:57:00,72.9,72.3,30.09,NE,55,0.0,4.0,98,0.00,,,0.00,251.0,meteohub,2013-10-04 13:57:00,
2013-10-04 10:02:00,73.2,72.9,30.09,ENE,57,0.0,4.0,99,0.00,,,0.00,257.0,meteohub,2013-10-04 14:02:00,
2013-10-04 10:07:00,73.2,72.9,30.09,ENE,57,0.0,4.0,99,0.00,,,0.00,243.0,meteohub,2013-10-04 14:07:00,
2013-10-04 10:12:00,73.2,72.9,30.09,NE,56,3.0,3.0,99,0.00,,,0.00,311.0,meteohub,2013-10-04 14:12:00,
2013-10-04 10:16:00,73.6,73.0,30.10,ENE,71,0.0,4.0,98,0.00,,,0.00,232.0,meteohub,2013-10-04 14:16:00,
2013-10-04 10:22:00,73.8,73.2,30.10,WNW,295,0.0,4.0,98,0.00,,,0.00,279.0,meteohub,2013-10-04 14:22:00,
2013-10-04 10:26:00,73.8,73.2,30.10,WNW,298,0.0,4.0,98,0.00,,,0.00,327.0,meteohub,2013-10-04 14:26:00,
2013-10-04 10:32:00,73.6,73.0,30.10,NW,305,1.0,3.0,98,0.00,,,0.00,334.0,meteohub,2013-10-04 14:32:00,
2013-10-04 10:37:00,73.6,73.0,30.10,NE,49,0.0,5.0,98,0.00,,,0.00,313.0,meteohub,2013-10-04 14:37:00,
2013-10-04 10:42:00,73.9,73.4,30.10,WNW,287,1.0,5.0,98,0.00,,,0.00,371.0,meteohub,2013-10-04 14:42:00,
2013-10-04 10:47:00,74.1,73.6,30.10,WNW,287,0.0,5.0,98,0.00,,,0.00,603.0,meteohub,2013-10-04 14:47:00,
2013-10-04 10:52:00,74.7,74.1,30.10,NW,306,0.0,5.0,98,0.00,,,0.00,313.0,meteohub,2013-10-04 14:52:00,
2013-10-04 10:57:00,74.7,74.1,30.10,West,279,1.0,2.0,98,0.00,,,0.00,322.0,meteohub,2013-10-04 14:57:00,
2013-10-04 11:02:00,75.0,74.5,30.10,WNW,290,0.0,3.0,98,0.00,,,0.00,733.0,meteohub,2013-10-04 15:02:00,
2013-10-04 11:07:00,75.7,75.2,30.10,ENE,59,0.0,3.0,98,0.00,,,0.00,775.0,meteohub,2013-10-04 15:07:00,
2013-10-04 11:12:00,76.1,74.8,30.10,NE,34,0.0,5.0,96,0.00,,,0.00,738.0,meteohub,2013-10-04 15:12:00,
2013-10-04 11:17:00,76.8,75.2,30.10,NNE,24,0.0,6.0,95,0.00,,,0.00,786.0,meteohub,2013-10-04 15:17:00,
2013-10-04 11:22:00,77.5,75.4,30.10,NW,313,3.0,6.0,93,0.00,,,0.00,849.0,meteohub,2013-10-04 15:22:00,
2013-10-04 11:27:00,77.9,75.0,30.09,NW,321,0.0,5.0,91,0.00,,,0.00,861.0,meteohub,2013-10-04 15:27:00,
2013-10-04 11:32:00,78.4,74.8,30.09,NW,313,0.0,5.0,89,0.00,,,0.00,209.0,meteohub,2013-10-04 15:32:00,
2013-10-04 11:37:00,78.4,74.7,30.09,NNE,13,1.0,5.0,88,0.00,,,0.00,209.0,meteohub,2013-10-04 15:37:00,
2013-10-04 11:42:00,78.4,74.7,30.09,NNE,17,0.0,5.0,88,0.00,,,0.00,241.0,meteohub,2013-10-04 15:42:00,
2013-10-04 11:47:00,78.6,74.8,30.09,NNE,17,0.0,4.0,88,0.00,,,0.00,258.0,meteohub,2013-10-04 15:47:00,
2013-10-04 11:52:00,78.8,74.3,30.09,NNE,17,0.0,4.0,86,0.00,,,0.00,232.0,meteohub,2013-10-04 15:52:00,
2013-10-04 11:57:00,79.0,74.1,30.09,NNE,17,0.0,2.0,85,0.00,,,0.00,339.0,meteohub,2013-10-04 15:57:00,
2013-10-04 12:02:00,79.2,74.7,30.09,NNE,17,0.0,3.0,86,0.00,,,0.00,236.0,meteohub,2013-10-04 16:02:00,
2013-10-04 12:07:00,79.2,74.3,30.09,NW,319,0.0,3.0,85,0.00,,,0.00,302.0,meteohub,2013-10-04 16:07:00,
2013-10-04 12:12:00,79.2,73.9,30.09,NNW,337,0.0,3.0,84,0.00,,,0.00,308.0,meteohub,2013-10-04 16:12:00,
2013-10-04 12:17:00,79.5,74.3,30.09,NNW,337,0.0,2.0,84,0.00,,,0.00,446.0,meteohub,2013-10-04 16:17:00,
2013-10-04 12:22:00,79.9,74.3,30.09,NNE,19,0.0,5.0,83,0.00,,,0.00,960.0,meteohub,2013-10-04 16:22:00,
2013-10-04 12:27:00,79.7,73.4,30.09,NNE,32,0.0,6.0,81,0.00,,,0.00,272.0,meteohub,2013-10-04 16:27:00,
2013-10-04 12:32:00,79.9,72.9,30.09,NE,48,0.0,6.0,79,0.00,,,0.00,174.0,meteohub,2013-10-04 16:32:00,
2013-10-04 12:37:00,79.9,73.6,30.08,NNE,22,1.0,5.0,81,0.00,,,0.00,207.0,meteohub,2013-10-04 16:37:00,
2013-10-04 12:42:00,79.9,73.9,30.08,ENE,61,0.0,7.0,82,0.00,,,0.00,271.0,meteohub,2013-10-04 16:42:00,
2013-10-04 12:47:00,80.6,74.3,30.08,NE,40,5.0,7.0,81,0.00,,,0.00,935.0,meteohub,2013-10-04 16:47:00,
2013-10-04 12:52:00,81.0,73.4,30.08,East,101,3.0,7.0,78,0.00,,,0.00,902.0,meteohub,2013-10-04 16:52:00,
2013-10-04 12:57:00,81.1,73.2,30.08,NNE,24,3.0,7.0,77,0.00,,,0.00,905.0,meteohub,2013-10-04 16:57:00,
2013-10-04 13:02:00,81.3,73.8,30.08,NNE,22,4.0,7.0,78,0.00,,,0.00,932.0,meteohub,2013-10-04 17:02:00,
2013-10-04 13:07:00,81.7,73.4,30.07,NNE,32,0.0,7.0,76,0.00,,,0.00,949.0,meteohub,2013-10-04 17:07:00,
2013-10-04 13:12:00,82.0,72.5,30.07,NNE,28,1.0,7.0,73,0.00,,,0.00,984.0,meteohub,2013-10-04 17:12:00,
2013-10-04 13:17:00,82.4,73.8,30.07,NE,52,5.0,8.0,75,0.00,,,0.00,997.0,meteohub,2013-10-04 17:17:00,
2013-10-04 13:22:00,82.6,72.1,30.07,NE,34,3.0,8.0,71,0.00,,,0.00,986.0,meteohub,2013-10-04 17:22:00,
2013-10-04 13:27:00,82.8,72.9,30.06,NE,34,0.0,8.0,72,0.00,,,0.00,285.0,meteohub,2013-10-04 17:27:00,
2013-10-04 13:32:00,82.8,72.0,30.06,NNE,17,1.0,7.0,70,0.00,,,0.00,292.0,meteohub,2013-10-04 17:32:00,
2013-10-04 13:37:00,82.9,72.5,30.06,NNE,17,0.0,7.0,71,0.00,,,0.00,1000.0,meteohub,2013-10-04 17:37:00,
2013-10-04 14:02:00,82.2,72.3,30.05,NNE,29,1.0,5.0,72,0.00,,,0.00,940.0,meteohub,2013-10-04 18:02:00,
2013-10-04 14:07:00,82.8,72.3,30.05,NNW,341,0.0,3.0,71,0.00,,,0.00,1048.0,meteohub,2013-10-04 18:07:00,
2013-10-04 14:12:00,83.1,73.9,30.04,NE,56,0.0,3.0,74,0.00,,,0.00,376.0,meteohub,2013-10-04 18:12:00,
2013-10-04 14:17:00,82.8,73.6,30.04,WNW,286,5.0,7.0,74,0.00,,,0.00,236.0,meteohub,2013-10-04 18:17:00,
2013-10-04 14:22:00,82.0,73.4,30.04,NE,36,0.0,7.0,75,0.00,,,0.00,160.0,meteohub,2013-10-04 18:22:00,
2013-10-04 14:27:00,81.5,73.6,30.04,NE,43,0.0,7.0,77,0.00,,,0.00,134.0,meteohub,2013-10-04 18:27:00,
2013-10-04 14:33:00,81.1,72.9,30.04,East,89,0.0,6.0,76,0.00,,,0.00,149.0,meteohub,2013-10-04 18:33:00,
2013-10-04 14:38:00,81.1,73.6,30.04,NE,46,0.0,6.0,78,0.00,,,0.00,156.0,meteohub,2013-10-04 18:38:00,
2013-10-04 14:43:00,81.1,73.9,30.04,ESE,119,1.0,4.0,79,0.00,,,0.00,237.0,meteohub,2013-10-04 18:43:00,
2013-10-04 14:48:00,81.1,74.3,30.03,East,84,0.0,4.0,80,0.00,,,0.00,271.0,meteohub,2013-10-04 18:48:00,
2013-10-04 14:53:00,81.3,73.8,30.03,NE,52,5.0,5.0,78,0.00,,,0.00,250.0,meteohub,2013-10-04 18:53:00,
2013-10-04 14:58:00,81.1,73.2,30.03,ENE,60,0.0,6.0,77,0.00,,,0.00,225.0,meteohub,2013-10-04 18:58:00,
2013-10-04 15:03:00,81.7,73.8,30.03,East,92,0.0,7.0,77,0.00,,,0.00,786.0,meteohub,2013-10-04 19:03:00,
2013-10-04 15:08:00,82.0,74.1,30.03,NE,50,3.0,7.0,77,0.00,,,0.00,793.0,meteohub,2013-10-04 19:08:00,
2013-10-04 15:13:00,82.4,73.8,30.03,NNE,22,6.0,7.0,75,0.00,,,0.00,812.0,meteohub,2013-10-04 19:13:00,
2013-10-04 15:18:00,82.2,73.6,30.02,ENE,63,5.0,8.0,75,0.00,,,0.00,255.0,meteohub,2013-10-04 19:18:00,
2013-10-04 15:23:00,81.7,73.0,30.03,NE,48,4.0,11.0,75,0.00,,,0.00,269.0,meteohub,2013-10-04 19:23:00,
2013-10-04 15:28:00,81.7,73.4,30.03,NE,41,0.0,12.0,76,0.00,,,0.00,288.0,meteohub,2013-10-04 19:28:00,
2013-10-04 15:33:00,81.9,73.2,30.03,NNE,33,1.0,12.0,75,0.00,,,0.00,670.0,meteohub,2013-10-04 19:33:00,
2013-10-04 15:38:00,81.9,73.2,30.02,NE,44,0.0,10.0,75,0.00,,,0.00,657.0,meteohub,2013-10-04 19:38:00,
2013-10-04 15:43:00,82.2,73.0,30.02,ENE,74,2.0,7.0,74,0.00,,,0.00,626.0,meteohub,2013-10-04 19:43:00,
2013-10-04 15:48:00,82.4,72.9,30.02,South,182,0.0,8.0,73,0.00,,,0.00,622.0,meteohub,2013-10-04 19:48:00,
2013-10-04 15:53:00,82.9,73.0,30.02,NNE,24,3.0,8.0,72,0.00,,,0.00,617.0,meteohub,2013-10-04 19:53:00,
2013-10-04 15:58:00,82.8,72.9,30.02,ENE,57,0.0,8.0,72,0.00,,,0.00,591.0,meteohub,2013-10-04 19:58:00,
2013-10-04 16:03:00,82.8,72.3,30.02,SE,139,5.0,8.0,71,0.00,,,0.00,571.0,meteohub,2013-10-04 20:03:00,
2013-10-04 16:08:00,82.8,72.3,30.02,ESE,123,1.0,8.0,71,0.00,,,0.00,555.0,meteohub,2013-10-04 20:08:00,
2013-10-04 16:13:00,82.8,72.3,30.02,ESE,113,1.0,8.0,71,0.00,,,0.00,536.0,meteohub,2013-10-04 20:13:00,
2013-10-04 16:18:00,82.6,72.1,30.02,NE,34,0.0,7.0,71,0.00,,,0.00,520.0,meteohub,2013-10-04 20:18:00,
2013-10-04 16:23:00,82.6,72.1,30.02,NE,35,1.0,7.0,71,0.00,,,0.00,497.0,meteohub,2013-10-04 20:23:00,
2013-10-04 16:28:00,82.6,72.1,30.01,ENE,76,3.0,6.0,71,0.00,,,0.00,490.0,meteohub,2013-10-04 20:28:00,
2013-10-04 16:33:00,82.8,73.2,30.01,NE,34,4.0,6.0,73,0.00,,,0.00,469.0,meteohub,2013-10-04 20:33:00,
2013-10-04 16:38:00,82.4,72.5,30.01,NE,42,0.0,6.0,72,0.00,,,0.00,457.0,meteohub,2013-10-04 20:38:00,
2013-10-04 16:43:00,82.2,72.7,30.01,SSE,159,0.0,7.0,73,0.00,,,0.00,443.0,meteohub,2013-10-04 20:43:00,
2013-10-04 16:48:00,82.2,72.3,30.01,ESE,106,8.0,8.0,72,0.00,,,0.00,427.0,meteohub,2013-10-04 20:48:00,
2013-10-04 16:53:00,82.0,72.1,30.01,East,94,0.0,9.0,72,0.00,,,0.00,406.0,meteohub,2013-10-04 20:53:00,
2013-10-04 16:58:00,81.7,72.5,30.01,NE,55,1.0,9.0,74,0.00,,,0.00,385.0,meteohub,2013-10-04 20:58:00,
2013-10-04 17:03:00,81.7,73.0,30.01,ENE,65,0.0,9.0,75,0.00,,,0.00,371.0,meteohub,2013-10-04 21:03:00,
2013-10-04 17:08:00,81.7,72.5,30.01,ENE,65,0.0,9.0,74,0.00,,,0.00,353.0,meteohub,2013-10-04 21:08:00,
2013-10-04 17:13:00,81.3,72.7,30.01,East,99,0.0,9.0,75,0.00,,,0.00,262.0,meteohub,2013-10-04 21:13:00,
2013-10-04 17:18:00,81.1,72.5,30.01,East,88,1.0,4.0,75,0.00,,,0.00,90.0,meteohub,2013-10-04 21:18:00,
2013-10-04 17:23:00,80.8,72.5,30.01,NE,42,6.0,7.0,76,0.00,,,0.00,229.0,meteohub,2013-10-04 21:23:00,
2013-10-04 17:28:00,80.6,72.7,30.01,NE,41,0.0,9.0,77,0.00,,,0.00,81.0,meteohub,2013-10-04 21:28:00,
2013-10-04 17:33:00,80.4,72.5,30.02,ENE,68,2.0,9.0,77,0.00,,,0.00,53.0,meteohub,2013-10-04 21:33:00,
2013-10-04 17:38:00,80.2,72.3,30.01,ENE,76,0.0,9.0,77,0.00,,,0.00,77.0,meteohub,2013-10-04 21:38:00,
2013-10-04 17:43:00,80.2,72.3,30.01,ENE,58,0.0,9.0,77,0.00,,,0.00,193.0,meteohub,2013-10-04 21:43:00,
2013-10-04 17:48:00,80.2,72.7,30.01,ENE,61,3.0,9.0,78,0.00,,,0.00,47.0,meteohub,2013-10-04 21:48:00,
2013-10-04 17:53:00,80.1,73.0,30.01,NNE,24,1.0,9.0,79,0.00,,,0.00,32.0,meteohub,2013-10-04 21:53:00,
2013-10-04 17:58:00,79.9,73.2,30.01,ENE,59,1.0,7.0,80,0.00,,,0.00,28.0,meteohub,2013-10-04 21:58:00,
2013-10-04 18:03:00,79.7,73.0,30.01,ENE,59,0.0,7.0,80,0.00,,,0.00,28.0,meteohub,2013-10-04 22:03:00,
2013-10-04 18:08:00,79.5,72.5,30.01,NE,55,2.0,7.0,79,0.00,,,0.00,28.0,meteohub,2013-10-04 22:08:00,
2013-10-04 18:13:00,79.3,72.3,30.02,ESE,109,1.0,5.0,79,0.00,,,0.00,25.0,meteohub,2013-10-04 22:13:00,
2013-10-04 18:18:00,79.2,72.1,30.02,NE,52,2.0,5.0,79,0.00,,,0.00,26.0,meteohub,2013-10-04 22:18:00,
2013-10-04 18:23:00,78.8,72.1,30.02,ENE,76,0.0,5.0,80,0.00,,,0.00,21.0,meteohub,2013-10-04 22:23:00,
2013-10-04 18:28:00,78.6,72.3,30.02,NNE,30,2.0,7.0,81,0.00,,,0.00,19.0,meteohub,2013-10-04 22:28:00,
2013-10-04 18:33:00,78.4,72.5,30.02,NE,48,1.0,7.0,82,0.00,,,0.00,18.0,meteohub,2013-10-04 22:33:00,
2013-10-04 18:38:00,78.3,72.7,30.02,ESE,119,0.0,7.0,83,0.00,,,0.00,16.0,meteohub,2013-10-04 22:38:00,
2013-10-04 18:43:00,78.1,72.5,30.02,ENE,65,0.0,5.0,83,0.00,,,0.00,14.0,meteohub,2013-10-04 22:43:00,
2013-10-04 18:48:00,77.7,72.5,30.03,ENE,65,0.0,5.0,84,0.00,,,0.00,12.0,meteohub,2013-10-04 22:48:00,
2013-10-04 18:53:00,77.4,72.5,30.03,WSW,240,0.0,3.0,85,0.00,,,0.00,9.0,meteohub,2013-10-04 22:53:00,
2013-10-04 18:58:00,77.2,72.7,30.03,NNE,30,0.0,1.0,86,0.00,,,0.00,7.0,meteohub,2013-10-04 22:58:00,
2013-10-04 19:03:00,76.8,72.3,30.03,NE,37,0.0,3.0,86,0.00,,,0.00,5.0,meteohub,2013-10-04 23:03:00,
2013-10-04 19:08:00,76.5,72.3,30.03,NE,37,0.0,3.0,87,0.00,,,0.00,0.0,meteohub,2013-10-04 23:08:00,
2013-10-04 19:13:00,76.3,72.5,30.03,NE,37,0.0,3.0,88,0.00,,,0.00,0.0,meteohub,2013-10-04 23:13:00,
2013-10-04 19:18:00,75.9,72.1,30.03,NE,37,0.0,1.0,88,0.00,,,0.00,0.0,meteohub,2013-10-04 23:18:00,
2013-10-04 19:23:00,75.7,72.0,30.03,NE,37,0.0,1.0,88,0.00,,,0.00,0.0,meteohub,2013-10-04 23:23:00,
2013-10-04 19:28:00,75.6,72.1,30.03,NE,37,0.0,0.0,89,0.00,,,0.00,0.0,meteohub,2013-10-04 23:28:00,
2013-10-04 19:33:00,75.2,71.8,30.03,NE,37,0.0,0.0,89,0.00,,,0.00,0.0,meteohub,2013-10-04 23:33:00,
2013-10-04 19:38:00,74.8,71.8,30.04,NE,37,0.0,0.0,90,0.00,,,0.00,0.0,meteohub,2013-10-04 23:38:00,
2013-10-04 19:43:00,74.7,71.6,30.04,NE,37,0.0,0.0,90,0.00,,,0.00,0.0,meteohub,2013-10-04 23:43:00,
2013-10-04 19:48:00,74.5,71.6,30.04,NE,37,0.0,0.0,91,0.00,,,0.00,0.0,meteohub,2013-10-04 23:48:00,
2013-10-04 19:53:00,74.1,71.2,30.04,NE,37,0.0,0.0,91,0.00,,,0.00,0.0,meteohub,2013-10-04 23:53:00,
2013-10-04 19:58:00,73.9,71.4,30.04,NE,37,0.0,0.0,92,0.00,,,0.00,0.0,meteohub,2013-10-04 23:58:00,
2013-10-04 20:03:00,73.8,71.2,30.04,NE,37,0.0,0.0,92,0.00,,,0.00,0.0,meteohub,2013-10-05 00:03:00,
2013-10-04 20:08:00,73.6,71.1,30.04,NE,37,0.0,0.0,92,0.00,,,0.00,0.0,meteohub,2013-10-05 00:08:00,
2013-10-04 20:14:00,73.4,70.9,30.04,NE,37,0.0,0.0,92,0.00,,,0.00,0.0,meteohub,2013-10-05 00:14:00,
2013-10-04 20:19:00,73.0,70.9,30.04,NE,37,0.0,0.0,93,0.00,,,0.00,0.0,meteohub,2013-10-05 00:19:00,
2013-10-04 20:24:00,72.9,70.7,30.04,NE,37,0.0,0.0,93,0.00,,,0.00,0.0,meteohub,2013-10-05 00:24:00,
2013-10-04 20:29:00,72.9,71.1,30.04,NE,37,0.0,0.0,94,0.00,,,0.00,0.0,meteohub,2013-10-05 00:29:00,
2013-10-04 20:34:00,72.9,71.1,30.04,NE,37,0.0,0.0,94,0.00,,,0.00,0.0,meteohub,2013-10-05 00:34:00,
2013-10-04 20:39:00,72.7,70.9,30.04,NE,37,0.0,0.0,94,0.00,,,0.00,0.0,meteohub,2013-10-05 00:39:00,
2013-10-04 20:44:00,72.5,70.7,30.04,NE,37,0.0,0.0,94,0.00,,,0.00,0.0,meteohub,2013-10-05 00:44:00,
2013-10-04 20:49:00,72.7,70.9,30.05,NE,37,0.0,0.0,94,0.00,,,0.00,0.0,meteohub,2013-10-05 00:49:00,
2013-10-04 20:54:00,72.7,71.2,30.05,NE,37,0.0,0.0,95,0.00,,,0.00,0.0,meteohub,2013-10-05 00:54:00,
2013-10-04 20:59:00,72.5,71.1,30.05,NE,37,0.0,0.0,95,0.00,,,0.00,0.0,meteohub,2013-10-05 00:59:00,
2013-10-04 21:04:00,72.3,70.9,30.05,NE,37,0.0,0.0,95,0.00,,,0.00,0.0,meteohub,2013-10-05 01:04:00,
2013-10-04 21:09:00,72.1,70.7,30.06,NE,37,0.0,0.0,95,0.00,,,0.00,0.0,meteohub,2013-10-05 01:09:00,
2013-10-04 21:14:00,72.1,70.7,30.06,NE,37,0.0,0.0,95,0.00,,,0.00,0.0,meteohub,2013-10-05 01:14:00,
2013-10-04 21:19:00,72.0,70.5,30.06,NE,37,0.0,0.0,95,0.00,,,0.00,0.0,meteohub,2013-10-05 01:19:00,
2013-10-04 21:24:00,72.0,70.5,30.06,NE,37,0.0,0.0,95,0.00,,,0.00,0.0,meteohub,2013-10-05 01:24:00,
2013-10-04 21:29:00,71.8,70.3,30.06,NE,37,0.0,0.0,95,0.00,,,0.00,0.0,meteohub,2013-10-05 01:29:00,
2013-10-04 21:34:00,71.8,70.3,30.06,NE,37,0.0,0.0,95,0.00,,,0.00,0.0,meteohub,2013-10-05 01:34:00,
2013-10-04 21:40:00,71.8,70.5,30.06,NE,37,0.0,0.0,96,0.00,,,0.00,0.0,meteohub,2013-10-05 01:40:00,
2013-10-04 21:45:00,71.4,70.0,30.06,NE,37,0.0,0.0,95,0.00,,,0.00,0.0,meteohub,2013-10-05 01:45:00,
2013-10-04 21:50:00,71.2,69.8,30.06,NE,37,0.0,0.0,95,0.00,,,0.00,0.0,meteohub,2013-10-05 01:50:00,
2013-10-04 21:55:00,71.2,70.0,30.06,NE,37,0.0,0.0,96,0.00,,,0.00,0.0,meteohub,2013-10-05 01:55:00,
2013-10-04 22:00:00,71.1,69.8,30.06,NE,37,0.0,0.0,96,0.00,,,0.00,0.0,meteohub,2013-10-05 02:00:00,
2013-10-04 22:05:00,71.1,69.8,30.07,NE,37,0.0,0.0,96,0.00,,,0.00,0.0,meteohub,2013-10-05 02:05:00,
2013-10-04 22:10:00,71.1,69.8,30.06,NE,37,0.0,0.0,96,0.00,,,0.00,0.0,meteohub,2013-10-05 02:10:00,
2013-10-04 22:15:00,70.9,69.6,30.06,NE,37,0.0,0.0,96,0.00,,,0.00,0.0,meteohub,2013-10-05 02:15:00,
2013-10-04 22:20:00,70.9,69.6,30.07,NE,37,0.0,0.0,96,0.00,,,0.00,0.0,meteohub,2013-10-05 02:20:00,
2013-10-04 22:25:00,70.9,69.6,30.07,NE,37,0.0,0.0,96,0.00,,,0.00,0.0,meteohub,2013-10-05 02:25:00,
2013-10-04 22:30:00,70.5,69.3,30.06,NE,37,0.0,0.0,96,0.00,,,0.00,0.0,meteohub,2013-10-05 02:30:00,
2013-10-04 22:35:00,70.5,69.3,30.06,NE,37,0.0,0.0,96,0.00,,,0.00,0.0,meteohub,2013-10-05 02:35:00,
2013-10-04 22:40:00,70.5,69.3,30.06,NE,37,0.0,0.0,96,0.00,,,0.00,0.0,meteohub,2013-10-05 02:40:00,
2013-10-04 22:45:00,70.3,69.1,30.07,NE,37,0.0,0.0,96,0.00,,,0.00,0.0,meteohub,2013-10-05 02:45:00,
2013-10-04 22:50:00,70.2,68.9,30.07,NE,37,0.0,0.0,96,0.00,,,0.00,0.0,meteohub,2013-10-05 02:50:00,
2013-10-04 22:55:00,70.2,68.9,30.06,NE,37,0.0,0.0,96,0.00,,,0.00,0.0,meteohub,2013-10-05 02:55:00,
2013-10-04 23:00:00,70.0,68.7,30.06,NE,37,0.0,0.0,96,0.00,,,0.00,0.0,meteohub,2013-10-05 03:00:00,
2013-10-04 23:05:00,70.0,68.7,30.07,NE,37,0.0,0.0,96,0.00,,,0.00,0.0,meteohub,2013-10-05 03:05:00,
2013-10-04 23:10:00,69.8,68.5,30.07,NE,37,0.0,0.0,96,0.00,,,0.00,0.0,meteohub,2013-10-05 03:10:00,
2013-10-04 23:15:00,69.8,68.9,30.07,NE,37,0.0,0.0,97,0.00,,,0.00,0.0,meteohub,2013-10-05 03:15:00,
2013-10-04 23:20:00,69.8,68.9,30.06,NE,37,0.0,0.0,97,0.00,,,0.00,0.0,meteohub,2013-10-05 03:20:00,
2013-10-04 23:25:00,69.6,68.7,30.06,NE,37,0.0,0.0,97,0.00,,,0.00,0.0,meteohub,2013-10-05 03:25:00,
2013-10-04 23:30:00,69.6,68.7,30.06,NE,37,0.0,0.0,97,0.00,,,0.00,0.0,meteohub,2013-10-05 03:30:00,
2013-10-04 23:35:00,69.6,68.7,30.06,NE,37,0.0,0.0,97,0.00,,,0.00,0.0,meteohub,2013-10-05 03:35:00,
2013-10-04 23:40:00,69.6,68.4,30.06,NE,37,0.0,0.0,96,0.00,,,0.00,0.0,meteohub,2013-10-05 03:40:00,
2013-10-04 23:45:00,69.4,68.5,30.06,NE,37,0.0,0.0,97,0.00,,,0.00,0.0,meteohub,2013-10-05 03:45:00,
2013-10-04 23:50:00,69.4,68.5,30.06,NE,37,0.0,0.0,97,0.00,,,0.00,0.0,meteohub,2013-10-05 03:50:00,
2013-10-04 23:55:00,69.3,68.4,30.06,NE,37,0.0,0.0,97,0.00,,,0.00,0.0,meteohub,2013-10-05 03:55:00,